Aérodrome :
LOGIN :

S'inscrire | Disclaimer

   EN    FR    IT 

 










Légende :    VFR   VFR Marginal   IFR   IFR Intensif   IFR Très Intensif
Visi : 
Plafond : 
>= 8 km
>= 3000ft
5 à 8 km
1000 à 3000 ft
1500m à 5 km
500 à 1000 ft
800 à 1500m
200 à 500 ft
< 800m
< 200 ft
Symboles :   Orages  Brouillard  Fortes neiges  Fortes précipitations  Vent > 20 kt
SIGMETs :   Divers  Orages  Givrage  Turbulence  Onde Orograph.  Cendres Volcan.






- Altitude de l'aérodrome : 53 ft
- Code IATA : HAM


EDDH - Hamburg

DERNIER METAR :
  • 011450Z 29013KT 260V320 9999 -RA FEW026 SCT035 BKN040 08/01 Q1017 NOSIG

METARs EXPIRÉS :
  • 011420Z 28012KT 240V310 9999 -RA FEW028 BKN035 08/01 Q1017 NOSIG
  • 011350Z 27010KT 240V320 9999 -RA FEW026 SCT030 BKN035 08/01 Q1017 NOSIG
  • 011320Z 27011KT 230V300 9999 FEW026 BKN030 BKN048 08/02 Q1017 NOSIG
  • 011250Z 26011KT 230V300 9999 FEW026 BKN030 08/01 Q1017 NOSIG
  • 011220Z 26013KT 9999 SCT027 SCT032 08/01 Q1018 NOSIG

TAF TAF EDDH
Valide du 01 à 12h jusqu'au 02 à 18h UTC


011100Z 0112/0218 26012KT 9999 BKN035
BECMG 0116/0118 27007KT
TEMPO 0202/0209 BKN013
BECMG 0206/0208 24012KT
TEMPO 0209/0218 25015G25KT



MET'MAP, la Météo Aéronautique d'un coup d'oeil ! - Copyright ORBIFLY Décembre 2007 - Disclaimer

ORBIFLY MET'MAP TEAM :

Programmation & Développement : Alexandra Zaïnal
Sur une idée originale de : Baudouin d'Aumeries
Assistance à la programmation : Marc-Olivier Méhu
Soutien technique & logistique : Manuel Goepfert

Contact : metmap@orbifly.com




SOURCES & CREDITS :

   NOAA